createdAt,value
2024-03-13T00:00:20.786Z,49.78
2024-03-13T00:02:57.887Z,49.76
2024-03-13T00:05:12.963Z,49.75
2024-03-13T00:07:25.839Z,50.00
2024-03-13T00:09:51.943Z,50.36
2024-03-13T00:12:25.280Z,50.51
2024-03-13T00:14:42.076Z,50.09
2024-03-13T00:16:59.490Z,50.23
2024-03-13T00:19:13.072Z,50.31
2024-03-13T00:21:26.747Z,50.22
2024-03-13T00:23:42.649Z,50.28
2024-03-13T00:25:55.834Z,50.34
2024-03-13T00:28:09.955Z,50.17
2024-03-13T00:30:23.218Z,50.34
2024-03-13T00:32:36.708Z,49.90
2024-03-13T00:35:03.752Z,50.18
2024-03-13T00:37:16.724Z,50.06
2024-03-13T00:39:29.614Z,50.29
2024-03-13T00:41:43.444Z,50.03
2024-03-13T00:43:56.476Z,50.30
2024-03-13T00:46:10.506Z,50.30
2024-03-13T00:48:23.522Z,50.19
2024-03-13T00:50:37.285Z,50.28
2024-03-13T00:52:51.301Z,50.44
2024-03-13T00:55:05.054Z,50.40
2024-03-13T00:57:19.549Z,50.59
2024-03-13T00:59:36.600Z,50.56
2024-03-13T01:01:59.708Z,50.51
2024-03-13T01:04:13.382Z,50.62
2024-03-13T01:06:27.821Z,50.59
2024-03-13T01:08:40.791Z,50.60
2024-03-13T01:10:53.921Z,50.80
2024-03-13T01:13:07.587Z,50.93
2024-03-13T01:15:20.489Z,51.07
2024-03-13T01:17:44.572Z,50.99
2024-03-13T01:19:57.868Z,51.19
2024-03-13T01:22:15.250Z,51.19
2024-03-13T01:24:29.007Z,51.36
2024-03-13T01:26:45.205Z,51.39
2024-03-13T01:29:01.466Z,51.49
2024-03-13T01:31:14.498Z,51.71
2024-03-13T01:33:31.052Z,51.83
2024-03-13T01:35:47.438Z,52.13
2024-03-13T01:38:00.911Z,52.22
2024-03-13T01:40:21.456Z,52.22
2024-03-13T01:42:51.467Z,52.55
2024-03-13T01:45:45.644Z,52.49
2024-03-13T01:48:19.966Z,52.68
2024-03-13T01:50:49.794Z,52.45
2024-03-13T01:53:32.792Z,52.65
2024-03-13T01:55:51.279Z,52.78
2024-03-13T01:58:21.834Z,52.59
2024-03-13T02:01:03.791Z,52.64
2024-03-13T02:03:20.135Z,52.97
2024-03-13T02:05:36.116Z,53.26
2024-03-13T02:07:52.763Z,53.55
2024-03-13T02:10:09.296Z,53.69
2024-03-13T02:12:25.740Z,53.96
2024-03-13T02:14:45.343Z,53.88
2024-03-13T02:17:00.328Z,54.14
2024-03-13T02:19:17.248Z,54.44
2024-03-13T02:21:30.744Z,54.60
2024-03-13T02:23:41.323Z,54.67
2024-03-13T02:25:59.753Z,54.50
2024-03-13T02:28:09.734Z,54.85
2024-03-13T02:30:22.830Z,55.16
2024-03-13T02:32:35.987Z,55.00
2024-03-13T02:34:49.236Z,55.06
2024-03-13T02:36:58.786Z,55.21
2024-03-13T02:39:07.737Z,55.42
2024-03-13T02:41:20.138Z,55.17
2024-03-13T02:43:50.126Z,55.43
2024-03-13T02:46:08.307Z,55.44
2024-03-13T02:48:20.607Z,55.41
2024-03-13T02:50:30.732Z,55.47
2024-03-13T02:52:39.642Z,55.51
2024-03-13T02:54:49.758Z,55.76
2024-03-13T02:56:59.712Z,55.75
2024-03-13T02:59:22.407Z,55.79
2024-03-13T03:01:31.500Z,56.22
2024-03-13T03:03:51.496Z,55.80
2024-03-13T03:06:09.661Z,56.08
2024-03-13T03:08:42.590Z,55.96
2024-03-13T03:11:03.416Z,56.18
2024-03-13T03:13:21.663Z,56.23
2024-03-13T03:15:38.408Z,56.48
2024-03-13T03:17:51.489Z,56.44
2024-03-13T03:20:06.275Z,56.65
2024-03-13T03:22:15.932Z,56.51
2024-03-13T03:24:27.744Z,57.02
2024-03-13T03:26:36.925Z,56.85
2024-03-13T03:28:45.744Z,56.94
2024-03-13T03:30:58.982Z,57.05
2024-03-13T03:33:08.295Z,56.93
2024-03-13T03:35:21.469Z,57.23
2024-03-13T03:37:30.468Z,57.41
2024-03-13T03:39:40.540Z,57.49
2024-03-13T03:41:50.146Z,57.36
2024-03-13T03:44:02.108Z,57.33
2024-03-13T03:46:22.318Z,57.73
2024-03-13T03:48:34.677Z,57.76
2024-03-13T03:50:43.756Z,57.58
2024-03-13T03:52:56.078Z,57.52
2024-03-13T03:55:25.017Z,57.79
2024-03-13T03:57:44.819Z,57.73
2024-03-13T04:00:14.825Z,58.04
2024-03-13T04:02:23.873Z,58.35
2024-03-13T04:04:32.924Z,58.24
2024-03-13T04:06:43.398Z,58.20
2024-03-13T04:08:53.966Z,57.96
2024-03-13T04:11:04.039Z,58.21
2024-03-13T04:13:18.265Z,58.27
2024-03-13T04:15:28.716Z,58.45
2024-03-13T04:17:42.704Z,58.55
2024-03-13T04:19:51.840Z,58.53
2024-03-13T04:22:04.592Z,58.53
2024-03-13T04:24:24.326Z,58.79
2024-03-13T04:26:36.522Z,58.67
2024-03-13T04:28:50.271Z,58.72
2024-03-13T04:30:59.361Z,58.79
2024-03-13T04:33:08.701Z,58.91
2024-03-13T04:35:22.868Z,59.01
2024-03-13T04:37:31.887Z,59.21
2024-03-13T04:39:41.016Z,59.34
2024-03-13T04:41:53.732Z,59.46
2024-03-13T04:44:06.736Z,59.75
2024-03-13T04:46:19.271Z,59.71
2024-03-13T04:48:39.353Z,59.96
2024-03-13T04:50:58.643Z,60.07
2024-03-13T04:53:10.133Z,60.09
2024-03-13T04:55:19.104Z,59.98
2024-03-13T04:57:28.143Z,60.12
2024-03-13T04:59:57.774Z,60.08
2024-03-13T05:02:08.335Z,60.16
2024-03-13T05:04:17.370Z,60.22
2024-03-13T05:06:35.350Z,60.28
2024-03-13T05:08:44.786Z,60.18
2024-03-13T05:10:53.633Z,60.18
2024-03-13T05:13:05.000Z,60.22
2024-03-13T05:15:16.887Z,60.25
2024-03-13T05:17:38.603Z,60.27
2024-03-13T05:19:47.551Z,60.30
2024-03-13T05:21:56.594Z,60.20
2024-03-13T05:24:09.198Z,60.20
2024-03-13T05:26:21.065Z,60.33
2024-03-13T05:28:33.632Z,60.47
2024-03-13T05:30:46.072Z,60.34
2024-03-13T05:33:15.028Z,60.55
2024-03-13T05:35:44.050Z,60.60
2024-03-13T05:37:52.970Z,60.50
2024-03-13T05:40:23.022Z,60.74
2024-03-13T05:42:43.974Z,60.94
2024-03-13T05:44:56.422Z,60.97
2024-03-13T05:47:05.343Z,61.12
2024-03-13T05:49:19.345Z,60.97
2024-03-13T05:51:28.694Z,61.10
2024-03-13T05:53:37.726Z,61.09
2024-03-13T05:55:49.925Z,61.04
2024-03-13T05:57:59.172Z,61.01
2024-03-13T06:00:11.616Z,61.06
2024-03-13T06:02:24.565Z,61.07
2024-03-13T06:04:37.885Z,61.29
2024-03-13T06:06:48.084Z,61.31
2024-03-13T06:09:00.653Z,61.27
2024-03-13T06:11:10.616Z,61.15
2024-03-13T06:13:19.572Z,61.12
2024-03-13T06:15:28.523Z,61.02
2024-03-13T06:17:37.846Z,61.07
2024-03-13T06:19:47.228Z,61.21
2024-03-13T06:21:56.252Z,61.14
2024-03-13T06:24:08.506Z,61.36
2024-03-13T06:26:19.436Z,61.30
2024-03-13T06:28:44.312Z,61.29
2024-03-13T06:30:56.419Z,61.50
2024-03-13T06:33:06.497Z,61.56
2024-03-13T06:35:15.498Z,61.50
2024-03-13T06:37:24.764Z,61.56
2024-03-13T06:39:43.562Z,61.78
2024-03-13T06:41:56.389Z,61.70
2024-03-13T06:44:08.595Z,61.80
2024-03-13T06:46:18.085Z,61.93
2024-03-13T06:48:30.619Z,61.92
2024-03-13T06:50:42.900Z,62.12
2024-03-13T06:52:51.889Z,62.02
2024-03-13T06:55:20.844Z,62.12
2024-03-13T06:57:40.921Z,62.12
2024-03-13T06:59:49.876Z,62.06
2024-03-13T07:01:59.144Z,62.29
2024-03-13T07:04:18.223Z,62.21
2024-03-13T07:06:27.660Z,62.23
2024-03-13T07:08:40.188Z,62.28
2024-03-13T07:10:49.369Z,62.33
2024-03-13T07:12:58.220Z,62.51
2024-03-13T07:15:17.500Z,62.39
2024-03-13T07:17:30.231Z,62.50
2024-03-13T07:19:40.367Z,62.55
2024-03-13T07:21:49.325Z,62.51
2024-03-13T07:23:58.386Z,62.64
2024-03-13T07:26:09.823Z,62.65
2024-03-13T07:28:21.899Z,62.76
2024-03-13T07:30:31.553Z,62.67
2024-03-13T07:32:44.120Z,62.84
2024-03-13T07:34:53.878Z,62.72
2024-03-13T07:37:02.809Z,62.89
2024-03-13T07:39:16.881Z,62.89
2024-03-13T07:41:26.172Z,62.85
2024-03-13T07:43:35.235Z,63.03
2024-03-13T07:45:57.818Z,63.03
2024-03-13T07:48:11.124Z,63.18
2024-03-13T07:50:31.140Z,63.22
2024-03-13T07:52:50.614Z,63.58
2024-03-13T07:54:59.371Z,63.67
2024-03-13T07:57:08.593Z,63.76
2024-03-13T07:59:20.778Z,63.79
2024-03-13T08:01:29.888Z,63.71
2024-03-13T08:03:58.816Z,63.92
2024-03-13T09:06:54.628Z,65.71
2024-03-13T09:09:05.662Z,65.74
2024-03-13T09:11:19.160Z,65.80
2024-03-13T09:13:28.379Z,65.87
2024-03-13T09:15:40.812Z,65.83
2024-03-13T09:17:54.368Z,65.94
2024-03-13T09:20:16.087Z,65.97
2024-03-13T09:22:25.148Z,66.14
2024-03-13T09:24:48.121Z,66.05
2024-03-13T09:26:58.863Z,66.20
2024-03-13T09:29:11.099Z,66.39
2024-03-13T09:31:23.742Z,66.51
2024-03-13T09:33:35.686Z,66.67
2024-03-13T09:35:44.814Z,66.66
2024-03-13T09:37:54.610Z,67.14
2024-03-13T09:40:07.060Z,66.98
2024-03-13T09:42:19.987Z,67.25
2024-03-13T09:44:28.905Z,67.54
2024-03-13T09:46:38.180Z,67.67
2024-03-13T09:48:50.632Z,67.87
2024-03-13T09:51:02.150Z,67.86
2024-03-13T09:53:13.044Z,67.81
2024-03-13T09:55:25.157Z,68.00
2024-03-13T09:57:34.484Z,68.09
2024-03-13T09:59:46.675Z,68.19
2024-03-13T10:02:05.752Z,68.31
2024-03-13T10:04:26.708Z,68.37
2024-03-13T10:06:35.785Z,68.39
2024-03-13T10:09:05.653Z,68.48
2024-03-13T10:11:17.019Z,68.66
2024-03-13T10:13:29.753Z,68.65
2024-03-13T10:15:38.677Z,68.88
2024-03-13T10:17:47.936Z,68.74
2024-03-13T10:20:10.469Z,68.64
2024-03-13T10:22:19.348Z,68.93
2024-03-13T10:24:28.275Z,68.91
2024-03-13T10:26:41.358Z,68.82
2024-03-13T10:28:50.373Z,69.03
2024-03-13T10:31:19.284Z,68.98
2024-03-13T10:33:30.919Z,69.07
2024-03-13T10:35:41.520Z,69.07
2024-03-13T10:37:50.626Z,69.11
2024-03-13T10:40:02.645Z,69.26
2024-03-13T10:42:12.108Z,69.28
2024-03-13T10:44:30.037Z,69.48
2024-03-13T10:47:10.558Z,69.53
2024-03-13T10:49:19.681Z,69.41
2024-03-13T10:51:28.302Z,69.59
2024-03-13T10:53:37.456Z,69.82
2024-03-13T10:55:46.834Z,69.89
2024-03-13T10:57:56.933Z,69.81
2024-03-13T11:00:05.969Z,69.98
2024-03-13T11:02:14.745Z,70.07
2024-03-13T11:04:23.554Z,70.16
2024-03-13T11:06:32.471Z,69.92
2024-03-13T11:08:41.865Z,70.07
2024-03-13T11:11:02.162Z,70.08
2024-03-13T11:13:19.846Z,70.32
2024-03-13T11:15:31.780Z,70.38
2024-03-13T11:17:42.953Z,70.38
2024-03-13T11:19:52.056Z,70.62
2024-03-13T11:22:04.497Z,70.73
2024-03-13T11:24:14.296Z,70.84
2024-03-13T11:26:23.311Z,70.94
2024-03-13T11:28:32.263Z,70.93
2024-03-13T11:30:40.905Z,70.73
2024-03-13T11:32:51.115Z,70.85
2024-03-13T11:34:59.766Z,71.09
2024-03-13T11:37:13.476Z,71.05
2024-03-13T11:39:23.698Z,70.91
2024-03-13T11:41:33.730Z,71.13
2024-03-13T11:43:42.460Z,71.41
2024-03-13T11:45:51.159Z,71.21
2024-03-13T11:48:03.433Z,71.45
2024-03-13T11:50:13.457Z,71.45
2024-03-13T11:52:22.297Z,71.44
2024-03-13T11:54:34.791Z,71.30
2024-03-13T11:56:44.282Z,71.51
2024-03-13T11:58:53.701Z,71.22
2024-03-13T12:01:03.303Z,71.19
2024-03-13T12:03:13.945Z,71.58
2024-03-13T12:05:36.075Z,71.50
2024-03-13T12:07:45.232Z,71.72
2024-03-13T12:09:54.233Z,71.57
2024-03-13T12:12:06.507Z,71.53
2024-03-13T12:14:16.147Z,71.49
2024-03-13T12:16:24.879Z,71.84
2024-03-13T12:18:33.587Z,71.99
2024-03-13T12:20:44.168Z,71.89
2024-03-13T12:22:53.069Z,71.86
2024-03-13T12:25:01.887Z,72.13
2024-03-13T12:27:11.924Z,72.04
2024-03-13T12:29:20.647Z,72.17
2024-03-13T12:31:29.897Z,72.29
2024-03-13T12:33:38.849Z,72.20
2024-03-13T12:35:51.331Z,72.42
2024-03-13T12:38:00.154Z,72.65
2024-03-13T12:40:10.755Z,72.88
2024-03-13T12:42:20.505Z,72.77
2024-03-13T12:44:32.529Z,72.95
2024-03-13T12:46:42.627Z,72.93
2024-03-13T12:48:52.065Z,73.18
2024-03-13T12:51:00.887Z,73.07
2024-03-13T12:53:10.206Z,73.20
2024-03-13T12:55:22.203Z,73.26
2024-03-13T12:57:32.752Z,73.39
2024-03-13T12:59:53.886Z,73.28
2024-03-13T13:02:04.287Z,73.34
2024-03-13T13:04:13.521Z,73.28
2024-03-13T13:06:22.384Z,73.45
2024-03-13T13:08:30.962Z,73.38
2024-03-13T13:10:40.246Z,73.49
2024-03-13T13:12:49.842Z,73.93
2024-03-13T13:14:59.427Z,73.51
2024-03-13T13:17:09.717Z,73.84
2024-03-13T13:19:18.245Z,73.88
2024-03-13T13:21:27.287Z,73.91
2024-03-13T13:23:35.958Z,74.22
2024-03-13T13:25:44.845Z,74.31
2024-03-13T13:27:56.239Z,74.36
2024-03-13T13:30:05.497Z,74.47
2024-03-13T13:32:14.745Z,74.20
2024-03-13T13:34:23.354Z,74.44
2024-03-13T13:36:32.122Z,74.83
2024-03-13T13:38:40.807Z,74.84
2024-03-13T13:40:52.264Z,74.46
2024-03-13T13:43:01.190Z,74.63
2024-03-13T13:45:12.304Z,74.79
2024-03-13T13:47:20.975Z,74.76
2024-03-13T13:49:29.614Z,74.76
2024-03-13T13:51:38.287Z,74.75
2024-03-13T13:53:46.928Z,75.13
2024-03-13T13:55:55.799Z,75.09
2024-03-13T13:58:06.094Z,75.11
2024-03-13T14:00:19.760Z,74.77
2024-03-13T14:02:31.858Z,75.06
2024-03-13T14:04:40.847Z,75.31
2024-03-13T14:06:49.596Z,75.15
2024-03-13T14:08:58.216Z,74.84
2024-03-13T14:11:08.422Z,75.45
2024-03-13T14:13:18.164Z,75.19
2024-03-13T14:15:27.089Z,75.37
2024-03-13T14:17:38.141Z,75.23
2024-03-13T14:19:47.195Z,75.40
2024-03-13T14:21:57.009Z,75.67
2024-03-13T14:24:07.008Z,75.59
2024-03-13T14:26:15.751Z,75.57
2024-03-13T14:28:25.095Z,75.55
2024-03-13T14:30:33.707Z,75.80
2024-03-13T14:32:42.616Z,76.01
2024-03-13T14:34:59.325Z,75.94
2024-03-13T14:37:08.665Z,75.87
2024-03-13T14:39:19.020Z,75.88
2024-03-13T14:41:27.962Z,75.74
2024-03-13T14:43:37.318Z,76.09
2024-03-13T14:45:46.237Z,76.07
2024-03-13T14:47:55.350Z,76.33
2024-03-13T14:50:04.309Z,76.27
2024-03-13T14:52:13.145Z,76.30
2024-03-13T14:54:21.800Z,76.06
2024-03-13T14:56:31.063Z,76.17
2024-03-13T14:58:39.767Z,76.29
2024-03-13T15:00:50.654Z,76.60
2024-03-13T15:03:00.826Z,76.69
2024-03-13T15:05:10.273Z,76.58
2024-03-13T15:07:19.383Z,76.63
2024-03-13T15:09:28.020Z,76.85
2024-03-13T15:11:36.726Z,76.89
2024-03-13T15:13:49.155Z,76.73
2024-03-13T15:15:57.730Z,76.98
2024-03-13T15:18:06.573Z,76.99
2024-03-13T15:20:15.421Z,76.79
2024-03-13T15:22:26.624Z,76.97
2024-03-13T15:24:35.259Z,77.03
2024-03-13T15:26:44.163Z,77.07
2024-03-13T15:28:52.812Z,77.31
2024-03-13T15:31:01.398Z,77.19
2024-03-13T15:33:10.139Z,77.41
2024-03-13T15:35:18.941Z,77.46
2024-03-13T15:37:27.869Z,77.61
2024-03-13T15:39:36.596Z,77.53
2024-03-13T15:41:46.042Z,77.40
2024-03-13T15:43:55.387Z,77.61
2024-03-13T15:46:04.082Z,77.32
2024-03-13T15:48:13.049Z,77.32
2024-03-13T15:50:29.176Z,77.09
2024-03-13T15:52:41.785Z,77.35
2024-03-13T15:54:50.848Z,77.63
2024-03-13T15:56:59.504Z,77.64
2024-03-13T15:59:08.422Z,77.69
2024-03-13T16:01:17.802Z,77.71
2024-03-13T16:03:26.810Z,77.66
2024-03-13T16:05:35.769Z,77.90
2024-03-13T16:07:44.541Z,78.11
2024-03-13T16:09:54.116Z,78.00
2024-03-13T16:12:05.024Z,78.04
2024-03-13T16:14:16.385Z,77.82
2024-03-13T16:16:28.330Z,77.75
2024-03-13T16:18:37.050Z,77.76
2024-03-13T16:20:46.854Z,77.62
2024-03-13T16:22:55.406Z,77.75
2024-03-13T16:25:03.930Z,77.57
2024-03-13T16:27:12.611Z,77.40
2024-03-13T16:29:21.277Z,77.27
2024-03-13T16:31:29.871Z,77.22
2024-03-13T16:33:38.805Z,77.29
2024-03-13T16:35:47.488Z,76.95
2024-03-13T16:37:56.186Z,76.92
2024-03-13T16:40:06.481Z,76.76
2024-03-13T16:42:15.234Z,76.54
2024-03-13T16:44:24.685Z,76.24
2024-03-13T16:46:34.256Z,76.04
2024-03-13T16:48:43.400Z,75.97
2024-03-13T16:50:52.278Z,76.06
2024-03-13T16:53:00.974Z,75.97
2024-03-13T16:55:10.192Z,76.10
2024-03-13T16:57:18.850Z,76.04
2024-03-13T16:59:28.013Z,75.95
2024-03-13T17:01:36.694Z,75.77
2024-03-13T17:03:46.917Z,75.56
2024-03-13T17:05:56.363Z,75.46
2024-03-13T17:08:05.734Z,75.27
2024-03-13T17:10:14.501Z,75.32
2024-03-13T17:12:24.009Z,75.44
2024-03-13T17:14:33.796Z,75.32
2024-03-13T17:16:43.430Z,75.34
2024-03-13T17:18:52.289Z,75.26
2024-03-13T17:21:01.647Z,74.95
2024-03-13T17:23:12.958Z,75.09
2024-03-13T17:25:24.094Z,75.02
2024-03-13T17:27:32.758Z,75.12
2024-03-13T17:29:41.746Z,75.00
2024-03-13T17:31:50.336Z,74.94
2024-03-13T17:33:59.136Z,74.47
2024-03-13T17:36:09.411Z,74.48
2024-03-13T17:38:18.063Z,74.49
2024-03-13T17:40:26.722Z,74.42
2024-03-13T17:42:35.311Z,74.46
2024-03-13T17:44:45.476Z,74.34
2024-03-13T17:46:54.091Z,74.39
2024-03-13T17:49:02.890Z,74.38
2024-03-13T17:51:13.623Z,74.58
2024-03-13T17:53:22.367Z,74.25
2024-03-13T17:55:31.583Z,74.18
2024-03-13T17:57:40.436Z,73.88
2024-03-13T17:59:49.776Z,74.12
2024-03-13T18:01:58.465Z,73.86
2024-03-13T18:04:10.232Z,73.76
2024-03-13T18:06:22.285Z,73.39
2024-03-13T18:08:30.583Z,73.40
2024-03-13T18:10:39.303Z,73.21
2024-03-13T18:12:49.124Z,73.27
2024-03-13T18:14:58.219Z,73.19
2024-03-13T18:17:07.002Z,73.29
2024-03-13T18:19:15.932Z,72.98
2024-03-13T18:21:26.692Z,73.22
2024-03-13T18:23:35.258Z,73.35
2024-03-13T18:25:44.085Z,73.49
2024-03-13T18:27:52.730Z,73.34
2024-03-13T18:30:06.621Z,73.49
2024-03-13T18:32:15.286Z,73.52
2024-03-13T18:34:23.967Z,73.57
2024-03-13T18:36:32.646Z,73.06
2024-03-13T18:38:41.465Z,72.83
2024-03-13T18:40:50.535Z,73.31
2024-03-13T18:42:59.178Z,73.27
2024-03-13T18:45:08.524Z,73.53
2024-03-13T18:47:17.165Z,73.15
2024-03-13T18:49:25.713Z,72.48
2024-03-13T18:51:34.451Z,72.11
2024-03-13T18:53:44.128Z,71.20
2024-03-13T18:55:53.087Z,70.52
2024-03-13T18:58:01.808Z,69.72
2024-03-13T19:00:15.288Z,69.03
2024-03-13T19:02:25.794Z,68.63
2024-03-13T19:04:35.605Z,68.25
2024-03-13T19:06:45.258Z,67.69
2024-03-13T19:08:54.115Z,67.06
2024-03-13T19:11:03.257Z,65.84
2024-03-13T19:13:12.765Z,65.06
2024-03-13T19:15:21.943Z,64.94
2024-03-13T19:17:30.642Z,64.53
2024-03-13T19:19:39.523Z,64.69
2024-03-13T19:21:48.527Z,64.17
2024-03-13T19:23:58.565Z,63.82
2024-03-13T19:26:08.164Z,63.20
2024-03-13T19:28:16.898Z,62.46
2024-03-13T19:30:25.704Z,62.21
2024-03-13T19:32:34.310Z,62.47
2024-03-13T19:34:44.707Z,62.52
2024-03-13T19:36:53.356Z,62.36
2024-03-13T19:39:02.322Z,62.24
2024-03-13T19:41:11.118Z,60.92
2024-03-13T19:43:19.959Z,60.31
2024-03-13T19:45:29.269Z,59.49
2024-03-13T19:47:38.822Z,59.23
2024-03-13T19:49:47.604Z,59.44
2024-03-13T19:51:56.846Z,58.82
2024-03-13T19:54:05.604Z,58.54
2024-03-13T19:56:14.934Z,58.37
2024-03-13T19:58:23.550Z,57.60
2024-03-13T20:00:32.989Z,57.43
2024-03-13T20:02:41.792Z,57.32
2024-03-13T20:04:50.467Z,56.95
2024-03-13T20:06:59.218Z,56.34
2024-03-13T20:09:09.932Z,55.66
2024-03-13T20:11:19.561Z,55.07
2024-03-13T20:13:28.223Z,54.34
2024-03-13T20:15:37.308Z,53.64
2024-03-13T20:17:46.195Z,53.21
2024-03-13T20:19:55.823Z,52.66
2024-03-13T20:22:04.433Z,52.26
2024-03-13T20:24:13.610Z,52.13
2024-03-13T20:26:22.198Z,51.63
2024-03-13T20:28:30.813Z,51.34
2024-03-13T20:30:39.506Z,51.12
2024-03-13T20:32:48.284Z,51.65
2024-03-13T20:34:57.154Z,51.71
2024-03-13T20:37:05.891Z,51.49
2024-03-13T20:39:15.710Z,50.68
2024-03-13T20:41:25.054Z,49.97
2024-03-13T20:43:33.642Z,48.87
2024-03-13T20:45:42.620Z,48.36
2024-03-13T20:47:51.509Z,48.13
2024-03-13T20:50:00.852Z,48.00
2024-03-13T20:52:10.049Z,47.16
2024-03-13T20:54:18.808Z,47.01
2024-03-13T20:56:28.192Z,46.70
2024-03-13T20:58:38.149Z,46.89
2024-03-13T21:00:47.096Z,46.52
2024-03-13T21:02:57.963Z,46.62
2024-03-13T21:05:07.562Z,46.35
2024-03-13T21:07:16.305Z,46.50
2024-03-13T21:09:25.918Z,46.26
2024-03-13T21:11:34.843Z,46.21
2024-03-13T21:13:43.599Z,46.13
2024-03-13T21:15:57.098Z,46.31
2024-03-13T21:18:11.449Z,46.29
2024-03-13T21:20:22.153Z,45.63
2024-03-13T21:22:31.186Z,45.34
2024-03-13T21:24:39.991Z,45.66
2024-03-13T21:26:49.510Z,45.65
2024-03-13T21:28:59.263Z,45.54
2024-03-13T21:31:08.749Z,45.21
2024-03-13T21:33:17.418Z,45.20
2024-03-13T21:35:31.937Z,45.31
2024-03-13T21:37:40.888Z,45.39
2024-03-13T21:39:49.624Z,45.45
2024-03-13T21:41:58.266Z,45.05
2024-03-13T21:44:08.578Z,44.52
2024-03-13T21:46:18.018Z,44.38
2024-03-13T21:48:26.773Z,44.18
2024-03-13T21:50:35.620Z,44.20
2024-03-13T21:52:45.073Z,43.92
2024-03-13T21:54:53.773Z,43.09
2024-03-13T21:57:04.853Z,42.93
2024-03-13T21:59:13.624Z,42.61
2024-03-13T22:01:22.265Z,42.54
2024-03-13T22:03:30.970Z,42.97
2024-03-13T22:05:39.657Z,42.90
2024-03-13T22:07:48.256Z,42.81
2024-03-13T22:09:56.751Z,42.80
2024-03-13T22:12:05.532Z,42.78
2024-03-13T22:14:14.511Z,42.75
2024-03-13T22:16:24.390Z,42.95
2024-03-13T22:18:33.149Z,42.93
2024-03-13T22:20:42.481Z,42.85
2024-03-13T22:22:51.100Z,43.14
2024-03-13T22:24:59.766Z,43.15
2024-03-13T22:27:08.817Z,42.94
2024-03-13T22:29:17.717Z,42.54
2024-03-13T22:31:26.377Z,42.19
2024-03-13T22:33:35.700Z,42.35
2024-03-13T22:35:44.541Z,42.36
2024-03-13T22:37:53.106Z,42.30
2024-03-13T22:40:01.802Z,41.94
2024-03-13T22:42:11.184Z,41.50
2024-03-13T22:44:20.570Z,41.52
2024-03-13T22:46:30.186Z,41.48
2024-03-13T22:48:39.578Z,41.83
2024-03-13T22:50:48.378Z,42.15
2024-03-13T22:52:56.986Z,42.23
2024-03-13T22:55:06.189Z,42.14
2024-03-13T22:57:14.894Z,42.17
2024-03-13T22:59:23.927Z,42.30
2024-03-13T23:01:34.346Z,42.29
2024-03-13T23:03:43.122Z,42.26
2024-03-13T23:05:54.009Z,42.25
2024-03-13T23:08:02.723Z,42.25
2024-03-13T23:10:13.577Z,42.02
2024-03-13T23:12:22.925Z,41.87
2024-03-13T23:14:31.924Z,42.06
2024-03-13T23:16:40.944Z,41.93
2024-03-13T23:18:49.576Z,41.87
2024-03-13T23:21:00.489Z,41.70
2024-03-13T23:23:09.634Z,41.50
2024-03-13T23:25:18.454Z,41.78
2024-03-13T23:27:27.079Z,41.94
2024-03-13T23:29:35.795Z,42.05
2024-03-13T23:31:46.839Z,42.14
2024-03-13T23:33:57.376Z,42.22
2024-03-13T23:36:07.985Z,42.28
2024-03-13T23:38:16.739Z,42.58
2024-03-13T23:40:25.422Z,42.46
2024-03-13T23:42:34.122Z,42.53
2024-03-13T23:44:42.671Z,42.79
2024-03-13T23:46:52.012Z,42.97
2024-03-13T23:49:01.479Z,43.06
2024-03-13T23:51:16.721Z,43.13
2024-03-13T23:53:25.445Z,43.14
2024-03-13T23:55:34.222Z,43.09
2024-03-13T23:57:43.959Z,42.99
2024-03-13T23:59:53.024Z,42.88
